Time;durP1;ratioP1;P1;durP2;ratioP2;P2;SDS_P1;SDS_P2;PMS_P1;PMS_P2;Temp;Humidity;BMP_temperature;BMP_pressure;BME280_temperature;BME280_humidity;BME280_pressure;Samples;Min_cycle;Max_cycle;Signal;HPM_P1;HPM_P2
2022/10/13 00:00:53;;;;;;;129.00;43.42;;;;;;;;;;5043838;28;20042;-55
2022/10/13 00:03:19;;;;;;;163.05;48.83;;;;;;;;;;5047842;28;20071;-54
2022/10/13 00:05:47;;;;;;;151.52;48.85;;;;;;;;;;5045618;28;20045;-55
2022/10/13 00:08:17;;;;;;;129.23;47.25;;;;;;;;;;5044244;28;20548;-52
2022/10/13 00:10:44;;;;;;;120.43;42.90;;;;;;;;;;5045792;28;20043;-53
2022/10/13 00:13:11;;;;;;;131.40;44.45;;;;;;;;;;5044116;28;20029;-53
2022/10/13 00:15:39;;;;;;;193.13;49.92;;;;;;;;;;5044679;28;20033;-53
2022/10/13 00:18:06;;;;;;;115.80;43.72;;;;;;;;;;5048637;28;20045;-53
2022/10/13 00:20:33;;;;;;;137.77;48.63;;;;;;;;;;5044878;28;20051;-53
2022/10/13 00:22:59;;;;;;;133.48;50.13;;;;;;;;;;5044158;28;20124;-54
2022/10/13 00:25:26;;;;;;;160.07;52.97;;;;;;;;;;5043048;28;20037;-54
2022/10/13 00:27:52;;;;;;;148.50;51.35;;;;;;;;;;5044117;28;20033;-54
2022/10/13 00:30:21;;;;;;;172.82;62.22;;;;;;;;;;5046244;28;20045;-56
2022/10/13 00:32:49;;;;;;;173.55;62.65;;;;;;;;;;5045178;28;20033;-54
2022/10/13 00:35:15;;;;;;;146.13;54.75;;;;;;;;;;5043698;28;20041;-56
2022/10/13 00:37:42;;;;;;;132.65;51.40;;;;;;;;;;5048075;28;20033;-57
2022/10/13 00:40:08;;;;;;;118.10;48.72;;;;;;;;;;5044396;28;20041;-58
2022/10/13 00:42:35;;;;;;;172.80;54.58;;;;;;;;;;5047551;28;20580;-57
2022/10/13 00:45:06;;;;;;;131.25;49.83;;;;;;;;;;5048719;28;20045;-55
2022/10/13 00:47:35;;;;;;;143.77;54.97;;;;;;;;;;5043719;28;20040;-53
2022/10/13 00:50:03;;;;;;;136.55;53.58;;;;;;;;;;5044055;28;20416;-53
2022/10/13 00:52:30;;;;;;;141.18;49.88;;;;;;;;;;5043490;28;20040;-54
2022/10/13 00:54:57;;;;;;;138.57;50.88;;;;;;;;;;5042770;28;20048;-56
2022/10/13 00:57:24;;;;;;;170.57;54.60;;;;;;;;;;5045844;28;20037;-56
2022/10/13 00:59:51;;;;;;;157.23;54.40;;;;;;;;;;5045182;28;20101;-55
2022/10/13 01:02:17;;;;;;;172.35;52.15;;;;;;;;;;5037303;28;20045;-56
2022/10/13 01:04:45;;;;;;;140.15;48.75;;;;;;;;;;5043628;28;20484;-54
2022/10/13 01:07:13;;;;;;;136.27;52.47;;;;;;;;;;5046921;28;20041;-54
2022/10/13 01:09:41;;;;;;;175.45;56.72;;;;;;;;;;5047875;28;20040;-55
2022/10/13 01:12:16;;;;;;;143.50;50.55;;;;;;;;;;5051279;28;20067;-54
2022/10/13 01:14:48;;;;;;;144.05;52.78;;;;;;;;;;5047543;28;20043;-55
2022/10/13 01:17:24;;;;;;;154.45;54.33;;;;;;;;;;5041681;28;20045;-56
2022/10/13 01:20:06;;;;;;;152.48;54.00;;;;;;;;;;5040779;28;20049;-55
2022/10/13 01:22:33;;;;;;;141.43;49.53;;;;;;;;;;5051159;28;20761;-55
2022/10/13 01:25:11;;;;;;;163.43;52.92;;;;;;;;;;5046334;28;20063;-54
2022/10/13 01:27:49;;;;;;;159.63;51.60;;;;;;;;;;5047364;28;20059;-54
2022/10/13 01:30:20;;;;;;;139.00;50.05;;;;;;;;;;5051124;28;20044;-56
2022/10/13 01:32:58;;;;;;;153.10;55.50;;;;;;;;;;5047660;28;20051;-56
2022/10/13 01:35:48;;;;;;;145.77;54.42;;;;;;;;;;5047095;28;20045;-55
2022/10/13 01:38:35;;;;;;;160.93;56.45;;;;;;;;;;5045837;28;20044;-54
2022/10/13 01:41:09;;;;;;;156.25;53.00;;;;;;;;;;5022997;28;20054;-54
2022/10/13 01:43:37;;;;;;;151.93;53.78;;;;;;;;;;5023382;28;20121;-56
2022/10/13 01:46:04;;;;;;;155.23;56.53;;;;;;;;;;5023682;28;20723;-54
2022/10/13 01:48:31;;;;;;;189.40;57.83;;;;;;;;;;5025739;28;20049;-57
2022/10/13 01:50:58;;;;;;;159.30;55.20;;;;;;;;;;5026589;28;20123;-51
2022/10/13 01:53:25;;;;;;;154.32;49.97;;;;;;;;;;5023513;28;20100;-53
2022/10/13 01:55:53;;;;;;;141.10;50.33;;;;;;;;;;5027220;28;20517;-53
2022/10/13 01:58:20;;;;;;;165.70;53.45;;;;;;;;;;5022831;28;20038;-54
2022/10/13 02:00:58;;;;;;;212.25;59.67;;;;;;;;;;5017464;28;20053;-53
2022/10/13 02:03:30;;;;;;;156.93;53.42;;;;;;;;;;5026832;28;20152;-54
2022/10/13 02:06:15;;;;;;;129.65;47.65;;;;;;;;;;5026192;28;20057;-50
2022/10/13 02:08:45;;;;;;;152.63;50.20;;;;;;;;;;5027492;28;20077;-53
2022/10/13 02:11:15;;;;;;;137.63;49.95;;;;;;;;;;5022746;28;20042;-54
2022/10/13 02:13:45;;;;;;;141.18;53.65;;;;;;;;;;5022778;28;20048;-54
2022/10/13 02:16:22;;;;;;;142.38;52.95;;;;;;;;;;5023423;28;20461;-53
2022/10/13 02:18:49;;;;;;;158.13;53.70;;;;;;;;;;5039948;28;20457;-55
2022/10/13 02:21:16;;;;;;;171.25;56.67;;;;;;;;;;5051078;28;20048;-55
2022/10/13 02:23:43;;;;;;;144.60;53.00;;;;;;;;;;5045725;28;20056;-55
2022/10/13 02:26:10;;;;;;;150.98;54.67;;;;;;;;;;5044915;28;20049;-55
2022/10/13 02:28:36;;;;;;;162.45;54.97;;;;;;;;;;5044945;28;20452;-56
2022/10/13 02:31:05;;;;;;;151.88;56.65;;;;;;;;;;5045926;28;20092;-55
2022/10/13 02:33:32;;;;;;;157.63;55.55;;;;;;;;;;5050224;28;20135;-55
2022/10/13 02:35:59;;;;;;;186.35;60.10;;;;;;;;;;5050316;28;20037;-55
2022/10/13 02:38:25;;;;;;;183.80;57.85;;;;;;;;;;5044918;28;20045;-55
2022/10/13 02:40:53;;;;;;;198.48;59.33;;;;;;;;;;5048494;28;20060;-55
2022/10/13 02:43:20;;;;;;;163.45;55.60;;;;;;;;;;5045443;28;20120;-55
2022/10/13 02:45:47;;;;;;;155.65;57.47;;;;;;;;;;5045654;28;20037;-56
2022/10/13 02:48:13;;;;;;;150.25;58.55;;;;;;;;;;5046589;28;20061;-56
2022/10/13 02:50:40;;;;;;;184.27;59.40;;;;;;;;;;5045259;28;20049;-56
2022/10/13 02:53:06;;;;;;;197.60;65.68;;;;;;;;;;5044836;28;20489;-56
2022/10/13 02:55:33;;;;;;;188.32;64.57;;;;;;;;;;5044249;28;20047;-56
2022/10/13 02:57:59;;;;;;;205.48;61.92;;;;;;;;;;5044598;28;20458;-54
2022/10/13 03:00:26;;;;;;;184.63;59.15;;;;;;;;;;5048476;28;20044;-56
2022/10/13 03:02:53;;;;;;;156.32;56.92;;;;;;;;;;5047409;28;20549;-54
2022/10/13 03:05:19;;;;;;;164.02;55.45;;;;;;;;;;5044889;28;20063;-54
2022/10/13 03:07:46;;;;;;;200.85;58.38;;;;;;;;;;5045012;28;20041;-55
2022/10/13 03:10:12;;;;;;;158.85;54.33;;;;;;;;;;5044223;28;20048;-56
2022/10/13 03:12:39;;;;;;;172.35;58.22;;;;;;;;;;5048608;28;20056;-56
2022/10/13 03:15:05;;;;;;;176.07;56.78;;;;;;;;;;5049229;28;20048;-55
2022/10/13 03:17:32;;;;;;;174.65;60.83;;;;;;;;;;5044861;28;20440;-54
2022/10/13 03:19:58;;;;;;;191.10;61.47;;;;;;;;;;5048891;28;20505;-55
2022/10/13 03:22:25;;;;;;;180.73;62.20;;;;;;;;;;5044136;28;20049;-56
2022/10/13 03:24:52;;;;;;;161.32;57.95;;;;;;;;;;5044514;28;20033;-54
2022/10/13 03:27:19;;;;;;;178.48;63.25;;;;;;;;;;5048411;28;20516;-55
2022/10/13 03:29:46;;;;;;;201.05;64.80;;;;;;;;;;5044729;28;20037;-56
2022/10/13 03:32:12;;;;;;;200.13;68.15;;;;;;;;;;5044609;28;20048;-54
2022/10/13 03:34:39;;;;;;;188.32;67.28;;;;;;;;;;5044797;28;20055;-55
2022/10/13 03:37:05;;;;;;;207.23;67.63;;;;;;;;;;5044579;28;20041;-56
2022/10/13 03:39:37;;;;;;;198.55;70.03;;;;;;;;;;5045827;28;20084;-55
2022/10/13 03:42:04;;;;;;;203.55;71.18;;;;;;;;;;5048445;28;20033;-55
2022/10/13 03:44:31;;;;;;;197.68;68.85;;;;;;;;;;5043370;28;20073;-51
2022/10/13 03:46:58;;;;;;;189.35;72.35;;;;;;;;;;5044474;28;20044;-56
2022/10/13 03:49:25;;;;;;;183.40;70.80;;;;;;;;;;5044233;28;20141;-55
2022/10/13 03:51:51;;;;;;;235.77;73.40;;;;;;;;;;5048484;28;20124;-55
2022/10/13 03:54:17;;;;;;;307.80;74.50;;;;;;;;;;5048495;28;20762;-53
2022/10/13 03:56:46;;;;;;;210.93;72.18;;;;;;;;;;5036748;28;20402;-55
2022/10/13 03:59:15;;;;;;;222.35;68.43;;;;;;;;;;5039519;28;20041;-56
2022/10/13 04:01:42;;;;;;;190.63;72.40;;;;;;;;;;5044423;28;20049;-54
2022/10/13 04:04:09;;;;;;;218.18;73.20;;;;;;;;;;5044547;28;20046;-55
2022/10/13 04:06:36;;;;;;;221.05;72.85;;;;;;;;;;5045506;28;20049;-55
2022/10/13 04:09:03;;;;;;;217.23;72.25;;;;;;;;;;5048153;28;20040;-56
2022/10/13 04:11:29;;;;;;;193.05;71.10;;;;;;;;;;5043954;28;20382;-56
2022/10/13 04:13:56;;;;;;;199.77;70.45;;;;;;;;;;5043899;28;20040;-54
2022/10/13 04:16:27;;;;;;;199.85;70.68;;;;;;;;;;5044286;28;20397;-55
2022/10/13 04:18:56;;;;;;;197.35;69.00;;;;;;;;;;5044689;28;20073;-56
2022/10/13 04:21:23;;;;;;;252.98;76.05;;;;;;;;;;5047547;28;20064;-56
2022/10/13 04:23:50;;;;;;;203.45;72.95;;;;;;;;;;5044937;28;20049;-54
2022/10/13 04:26:18;;;;;;;221.70;75.65;;;;;;;;;;5042994;28;20049;-55
2022/10/13 04:28:45;;;;;;;256.42;77.80;;;;;;;;;;5043367;28;20033;-54
2022/10/13 04:31:12;;;;;;;217.38;71.50;;;;;;;;;;5047691;28;20041;-55
2022/10/13 04:33:39;;;;;;;215.73;71.63;;;;;;;;;;5046922;28;20045;-55
2022/10/13 04:36:06;;;;;;;210.80;72.15;;;;;;;;;;5048412;28;20053;-54
2022/10/13 04:38:33;;;;;;;205.27;68.72;;;;;;;;;;5043464;28;20508;-55
2022/10/13 04:41:03;;;;;;;176.18;68.13;;;;;;;;;;5045879;28;20123;-53
2022/10/13 04:43:29;;;;;;;195.95;67.22;;;;;;;;;;5047378;28;20108;-55
2022/10/13 04:46:05;;;;;;;188.95;64.28;;;;;;;;;;5048508;28;20083;-55
2022/10/13 04:48:31;;;;;;;216.90;69.65;;;;;;;;;;5050448;28;20041;-55
2022/10/13 04:50:59;;;;;;;177.85;65.85;;;;;;;;;;5049925;28;20037;-55
2022/10/13 04:53:28;;;;;;;194.40;67.22;;;;;;;;;;5048140;28;20049;-58
2022/10/13 04:55:55;;;;;;;210.27;68.38;;;;;;;;;;5046857;28;20040;-54
2022/10/13 04:58:22;;;;;;;192.02;66.25;;;;;;;;;;5047136;28;20045;-56
2022/10/13 05:00:48;;;;;;;216.80;68.55;;;;;;;;;;5047368;28;20037;-56
2022/10/13 05:03:15;;;;;;;201.77;65.93;;;;;;;;;;5052366;28;20045;-56
2022/10/13 05:05:42;;;;;;;188.55;65.65;;;;;;;;;;5047359;28;20072;-56
2022/10/13 05:08:08;;;;;;;186.68;65.53;;;;;;;;;;5047532;28;20037;-54
2022/10/13 05:10:35;;;;;;;236.25;68.35;;;;;;;;;;5045460;28;20103;-55
2022/10/13 05:13:01;;;;;;;195.32;64.55;;;;;;;;;;5050634;28;20036;-56
2022/10/13 05:15:28;;;;;;;205.45;64.60;;;;;;;;;;5049017;28;20508;-56
2022/10/13 05:17:54;;;;;;;189.20;64.25;;;;;;;;;;5047118;28;20040;-56
2022/10/13 05:20:20;;;;;;;234.15;67.28;;;;;;;;;;5045978;28;20626;-56
2022/10/13 05:22:47;;;;;;;205.52;63.50;;;;;;;;;;5046590;28;20409;-55
2022/10/13 05:25:13;;;;;;;183.20;64.57;;;;;;;;;;5047061;28;20112;-54
2022/10/13 05:27:40;;;;;;;201.90;66.72;;;;;;;;;;5048773;28;20517;-56
2022/10/13 05:30:08;;;;;;;176.50;62.88;;;;;;;;;;5050757;28;20033;-55
2022/10/13 05:32:35;;;;;;;189.35;61.50;;;;;;;;;;5047412;28;20041;-57
2022/10/13 05:35:01;;;;;;;173.40;61.17;;;;;;;;;;5047310;28;20049;-57
2022/10/13 05:37:28;;;;;;;179.93;63.30;;;;;;;;;;5046873;28;20037;-55
2022/10/13 05:39:54;;;;;;;173.80;60.50;;;;;;;;;;5046795;28;20138;-55
2022/10/13 05:42:21;;;;;;;194.30;60.08;;;;;;;;;;5051170;28;20045;-54
2022/10/13 05:44:48;;;;;;;184.63;59.95;;;;;;;;;;5047493;28;20398;-56
2022/10/13 05:47:14;;;;;;;215.93;62.40;;;;;;;;;;5046645;28;20047;-57
2022/10/13 05:49:43;;;;;;;212.30;64.05;;;;;;;;;;5050909;28;20041;-55
2022/10/13 05:52:10;;;;;;;201.68;61.92;;;;;;;;;;5046969;28;20041;-56
2022/10/13 05:54:46;;;;;;;254.82;65.82;;;;;;;;;;5049671;28;20045;-56
2022/10/13 05:57:21;;;;;;;203.55;65.97;;;;;;;;;;5051091;28;20469;-57
2022/10/13 05:59:59;;;;;;;208.48;66.57;;;;;;;;;;5047618;28;20120;-56
2022/10/13 06:02:27;;;;;;;182.23;64.93;;;;;;;;;;5046458;28;20052;-56
2022/10/13 06:04:55;;;;;;;180.80;66.07;;;;;;;;;;5046314;28;20162;-55
2022/10/13 06:07:22;;;;;;;219.38;70.72;;;;;;;;;;5046021;28;20044;-55
2022/10/13 06:09:49;;;;;;;182.00;67.88;;;;;;;;;;5047069;28;20067;-55
2022/10/13 06:12:15;;;;;;;171.73;65.13;;;;;;;;;;5050958;28;20127;-57
2022/10/13 06:14:42;;;;;;;175.05;65.60;;;;;;;;;;5045960;28;20037;-56
2022/10/13 06:17:10;;;;;;;175.88;63.25;;;;;;;;;;5045563;28;20401;-54
2022/10/13 06:19:41;;;;;;;162.68;64.22;;;;;;;;;;5045977;28;20055;-56
2022/10/13 06:22:08;;;;;;;143.10;58.55;;;;;;;;;;5046105;28;20428;-56
2022/10/13 06:24:34;;;;;;;123.75;47.95;;;;;;;;;;5048368;28;20056;-56
2022/10/13 06:27:02;;;;;;;84.30;38.75;;;;;;;;;;5049101;28;20044;-56
2022/10/13 06:29:28;;;;;;;111.78;37.13;;;;;;;;;;5050126;28;20068;-55
2022/10/13 06:31:55;;;;;;;87.63;33.97;;;;;;;;;;5046017;28;20052;-56
2022/10/13 06:34:21;;;;;;;85.75;34.53;;;;;;;;;;5046573;28;20048;-54
2022/10/13 06:36:48;;;;;;;206.80;39.92;;;;;;;;;;5046319;28;20048;-55
2022/10/13 06:39:14;;;;;;;140.32;40.65;;;;;;;;;;5050104;28;20060;-56
2022/10/13 06:41:41;;;;;;;102.45;34.67;;;;;;;;;;5045717;28;20140;-55
2022/10/13 06:44:07;;;;;;;92.90;34.08;;;;;;;;;;5046076;28;20118;-55
2022/10/13 06:46:34;;;;;;;87.38;32.47;;;;;;;;;;5045243;28;20032;-56
2022/10/13 06:49:00;;;;;;;104.20;32.55;;;;;;;;;;5044504;28;20048;-54
2022/10/13 06:51:28;;;;;;;194.02;38.15;;;;;;;;;;5049616;28;20136;-56
2022/10/13 06:53:55;;;;;;;87.25;32.33;;;;;;;;;;5047602;28;20037;-54
2022/10/13 06:56:24;;;;;;;79.15;30.23;;;;;;;;;;5045325;28;20041;-56
2022/10/13 06:58:50;;;;;;;93.50;32.05;;;;;;;;;;5045252;28;20485;-54
2022/10/13 07:01:17;;;;;;;97.20;31.85;;;;;;;;;;5045144;28;20112;-53
2022/10/13 07:03:46;;;;;;;104.10;31.25;;;;;;;;;;5044617;28;20053;-55
2022/10/13 07:06:13;;;;;;;95.97;31.02;;;;;;;;;;5049850;28;20045;-56
2022/10/13 07:08:39;;;;;;;117.97;32.78;;;;;;;;;;5045501;28;20059;-56
2022/10/13 07:11:07;;;;;;;88.50;30.10;;;;;;;;;;5048921;28;20047;-55
2022/10/13 07:13:41;;;;;;;93.57;27.50;;;;;;;;;;5045147;28;20029;-55
2022/10/13 07:16:13;;;;;;;100.07;28.13;;;;;;;;;;5045099;28;20045;-53
2022/10/13 07:18:39;;;;;;;143.60;32.90;;;;;;;;;;5046596;28;20045;-55
2022/10/13 07:21:06;;;;;;;78.78;26.42;;;;;;;;;;5048815;28;20044;-55
2022/10/13 07:23:32;;;;;;;82.20;26.67;;;;;;;;;;5045124;28;20048;-55
2022/10/13 07:26:00;;;;;;;54.10;22.45;;;;;;;;;;5045082;28;20045;-56
2022/10/13 07:28:27;;;;;;;103.05;24.45;;;;;;;;;;5043604;28;20420;-55
2022/10/13 07:30:53;;;;;;;74.45;22.55;;;;;;;;;;5044218;28;20043;-56
2022/10/13 07:33:21;;;;;;;81.47;23.83;;;;;;;;;;5049711;28;20548;-55
2022/10/13 07:35:47;;;;;;;77.03;21.25;;;;;;;;;;5044877;28;20033;-56
2022/10/13 07:38:14;;;;;;;125.05;21.67;;;;;;;;;;5045482;28;20055;-56
2022/10/13 07:40:45;;;;;;;64.75;20.77;;;;;;;;;;5044625;28;20033;-56
2022/10/13 07:43:12;;;;;;;101.80;21.83;;;;;;;;;;5044461;28;20048;-56
2022/10/13 07:45:38;;;;;;;94.57;19.23;;;;;;;;;;5049057;28;20390;-56
2022/10/13 07:48:05;;;;;;;52.97;17.88;;;;;;;;;;5050367;28;20512;-56
2022/10/13 07:50:32;;;;;;;68.40;17.48;;;;;;;;;;5045371;28;20041;-55
2022/10/13 07:52:58;;;;;;;90.18;19.27;;;;;;;;;;5044511;28;20140;-56
2022/10/13 07:55:25;;;;;;;90.40;17.58;;;;;;;;;;5045072;28;20037;-55
2022/10/13 07:57:52;;;;;;;104.03;20.48;;;;;;;;;;5044432;28;20041;-57
2022/10/13 08:00:19;;;;;;;44.75;15.45;;;;;;;;;;5049547;28;20067;-56
2022/10/13 08:02:48;;;;;;;89.60;17.63;;;;;;;;;;5044412;28;20064;-55
2022/10/13 08:05:14;;;;;;;86.05;17.33;;;;;;;;;;5044492;28;20056;-55
2022/10/13 08:07:41;;;;;;;83.18;17.08;;;;;;;;;;5044664;28;20527;-55
2022/10/13 08:10:08;;;;;;;54.80;14.90;;;;;;;;;;5044171;28;20075;-54
2022/10/13 08:12:35;;;;;;;84.13;16.60;;;;;;;;;;5047144;28;20049;-55
2022/10/13 08:15:04;;;;;;;48.85;14.30;;;;;;;;;;5047088;28;20049;-55
2022/10/13 08:17:32;;;;;;;73.47;16.00;;;;;;;;;;5043977;28;20048;-54
2022/10/13 08:19:58;;;;;;;64.80;15.52;;;;;;;;;;5044085;28;20049;-55
2022/10/13 08:22:26;;;;;;;57.83;15.00;;;;;;;;;;5044241;28;20039;-55
2022/10/13 08:24:54;;;;;;;53.25;12.45;;;;;;;;;;5048261;28;20099;-55
2022/10/13 08:27:22;;;;;;;81.00;16.20;;;;;;;;;;5048881;28;20079;-55
2022/10/13 08:30:03;;;;;;;55.38;12.25;;;;;;;;;;5046693;28;20460;-54
2022/10/13 08:32:31;;;;;;;50.22;11.98;;;;;;;;;;5044410;28;20060;-56
2022/10/13 08:34:57;;;;;;;37.38;10.90;;;;;;;;;;5043924;28;20048;-55
2022/10/13 08:37:24;;;;;;;66.78;14.10;;;;;;;;;;5044204;28;20083;-54
2022/10/13 08:39:53;;;;;;;93.38;15.43;;;;;;;;;;5044335;28;20068;-55
2022/10/13 08:42:20;;;;;;;49.10;12.05;;;;;;;;;;5043302;28;20059;-56
2022/10/13 08:44:53;;;;;;;73.15;11.38;;;;;;;;;;5044773;28;20071;-57
2022/10/13 08:47:45;;;;;;;44.60;9.13;;;;;;;;;;5044488;28;20045;-56
2022/10/13 08:50:13;;;;;;;52.20;9.33;;;;;;;;;;5044345;28;20041;-57
2022/10/13 08:52:43;;;;;;;56.75;11.02;;;;;;;;;;5043750;28;20040;-57
2022/10/13 08:55:16;;;;;;;77.00;10.02;;;;;;;;;;5043654;28;20037;-57
2022/10/13 08:57:43;;;;;;;78.60;11.80;;;;;;;;;;5045823;28;20558;-57
2022/10/13 09:00:11;;;;;;;42.35;7.60;;;;;;;;;;5047668;28;20282;-57
2022/10/13 09:02:41;;;;;;;41.28;7.80;;;;;;;;;;5043605;28;20052;-57
2022/10/13 09:05:12;;;;;;;40.15;6.93;;;;;;;;;;5047687;28;20436;-57
2022/10/13 09:07:39;;;;;;;57.80;7.03;;;;;;;;;;5043936;28;20049;-57
2022/10/13 09:10:08;;;;;;;73.03;8.90;;;;;;;;;;5043221;28;20034;-57
2022/10/13 09:12:35;;;;;;;75.18;8.82;;;;;;;;;;5046756;28;20467;-57
2022/10/13 09:15:09;;;;;;;36.83;6.85;;;;;;;;;;5045492;28;21074;-57
2022/10/13 09:17:36;;;;;;;32.92;6.13;;;;;;;;;;5043518;28;20116;-57
2022/10/13 09:20:14;;;;;;;69.90;7.93;;;;;;;;;;5043769;28;20110;-57
2022/10/13 09:22:41;;;;;;;57.75;8.05;;;;;;;;;;5042429;28;20041;-57
2022/10/13 09:25:14;;;;;;;53.63;6.82;;;;;;;;;;5043626;28;20121;-57
2022/10/13 09:27:40;;;;;;;53.13;7.80;;;;;;;;;;5049095;28;20177;-57
2022/10/13 09:30:37;;;;;;;41.35;6.75;;;;;;;;;;5049284;28;20382;-57
2022/10/13 09:33:03;;;;;;;34.78;5.95;;;;;;;;;;5042655;28;20095;-57
2022/10/13 09:35:33;;;;;;;29.73;5.97;;;;;;;;;;5046781;28;20037;-57
2022/10/13 09:38:01;;;;;;;152.32;12.85;;;;;;;;;;5047295;28;20075;-57
2022/10/13 09:40:31;;;;;;;43.80;5.28;;;;;;;;;;5046222;28;20029;-57
2022/10/13 09:42:59;;;;;;;54.83;6.60;;;;;;;;;;5050743;28;20107;-56
2022/10/13 09:45:29;;;;;;;32.72;5.35;;;;;;;;;;5051705;28;20043;-57
2022/10/13 09:48:01;;;;;;;69.55;8.93;;;;;;;;;;5051613;28;20410;-57
2022/10/13 09:50:29;;;;;;;60.70;7.43;;;;;;;;;;5046750;28;20503;-57
2022/10/13 09:53:29;;;;;;;40.50;5.30;;;;;;;;;;5045106;28;20101;-57
2022/10/13 09:56:15;;;;;;;42.08;4.93;;;;;;;;;;5019456;28;20058;-57
2022/10/13 09:58:45;;;;;;;56.08;6.28;;;;;;;;;;5012322;28;20060;-57
2022/10/13 10:01:24;;;;;;;36.97;5.07;;;;;;;;;;5012809;28;20061;-56
2022/10/13 10:03:51;;;;;;;486.23;38.28;;;;;;;;;;5012772;28;20049;-57
2022/10/13 10:06:17;;;;;;;138.13;12.90;;;;;;;;;;5009679;28;20073;-57
2022/10/13 10:08:50;;;;;;;102.28;8.25;;;;;;;;;;5019962;28;20037;-57
2022/10/13 10:11:32;;;;;;;34.53;4.40;;;;;;;;;;5015310;28;20414;-56
2022/10/13 10:14:14;;;;;;;48.08;5.63;;;;;;;;;;5012488;28;20490;-57
2022/10/13 10:16:43;;;;;;;123.93;29.75;;;;;;;;;;5012019;28;20729;-57
2022/10/13 10:19:36;;;;;;;41.17;5.18;;;;;;;;;;5025433;28;20260;-57
2022/10/13 10:22:03;;;;;;;80.00;7.50;;;;;;;;;;5013017;28;20564;-57
2022/10/13 10:24:45;;;;;;;52.05;5.47;;;;;;;;;;5027829;28;20084;-57
2022/10/13 10:27:25;;;;;;;52.30;5.90;;;;;;;;;;5010428;28;20065;-57
2022/10/13 10:29:57;;;;;;;43.45;4.68;;;;;;;;;;5028831;28;20136;-57
2022/10/13 10:32:26;;;;;;;68.43;6.30;;;;;;;;;;5041585;28;20065;-57
2022/10/13 10:35:00;;;;;;;54.50;6.53;;;;;;;;;;5044571;28;20037;-57
2022/10/13 10:37:59;;;;;;;75.32;6.25;;;;;;;;;;5045590;28;20033;-56
2022/10/13 10:40:29;;;;;;;206.93;15.95;;;;;;;;;;5036964;28;20075;-57
2022/10/13 10:43:02;;;;;;;69.25;6.85;;;;;;;;;;5045991;28;20064;-57
2022/10/13 10:45:33;;;;;;;58.73;6.57;;;;;;;;;;5046753;28;20045;-57
2022/10/13 10:48:01;;;;;;;28.77;4.45;;;;;;;;;;5046117;28;20139;-57
2022/10/13 10:50:29;;;;;;;58.92;6.28;;;;;;;;;;5046100;28;20044;-57
2022/10/13 10:53:12;;;;;;;56.40;5.78;;;;;;;;;;5045121;28;20315;-57
2022/10/13 10:55:46;;;;;;;60.80;6.85;;;;;;;;;;5045609;28;20459;-57
2022/10/13 10:58:19;;;;;;;98.55;9.07;;;;;;;;;;5045680;28;20071;-57
2022/10/13 11:00:48;;;;;;;66.72;7.22;;;;;;;;;;5047692;28;20033;-58
2022/10/13 11:03:25;;;;;;;51.63;5.30;;;;;;;;;;5049287;28;20045;-57
2022/10/13 11:05:59;;;;;;;43.13;4.85;;;;;;;;;;5045892;28;20108;-57
2022/10/13 11:08:28;;;;;;;27.48;3.45;;;;;;;;;;5045235;28;20456;-57
2022/10/13 11:11:13;;;;;;;45.40;4.93;;;;;;;;;;5044637;28;20044;-57
2022/10/13 11:13:59;;;;;;;41.65;5.38;;;;;;;;;;5045220;28;20612;-57
2022/10/13 11:16:33;;;;;;;99.95;8.98;;;;;;;;;;5045333;28;20039;-57
2022/10/13 11:19:19;;;;;;;125.05;9.55;;;;;;;;;;5045425;28;20061;-57
2022/10/13 11:21:51;;;;;;;117.88;10.75;;;;;;;;;;5046186;28;20048;-57
2022/10/13 11:24:32;;;;;;;103.90;14.38;;;;;;;;;;5048526;28;20073;-57
2022/10/13 11:27:19;;;;;;;42.90;5.68;;;;;;;;;;5046685;28;20511;-59
2022/10/13 11:29:46;;;;;;;78.72;7.70;;;;;;;;;;5037647;28;20053;-57
2022/10/13 11:32:25;;;;;;;33.35;4.63;;;;;;;;;;5044979;28;20112;-57
2022/10/13 11:35:12;;;;;;;63.28;6.55;;;;;;;;;;5044742;28;20053;-57
2022/10/13 11:38:03;;;;;;;57.45;5.50;;;;;;;;;;5044360;28;20540;-58
2022/10/13 11:40:51;;;;;;;52.63;6.72;;;;;;;;;;5044445;28;20383;-57
2022/10/13 11:43:33;;;;;;;37.92;5.13;;;;;;;;;;5048646;28;20392;-57
2022/10/13 11:46:06;;;;;;;124.07;9.13;;;;;;;;;;5044515;28;20554;-56
2022/10/13 11:48:51;;;;;;;54.42;5.95;;;;;;;;;;5048741;28;20456;-57
2022/10/13 11:51:22;;;;;;;80.22;8.05;;;;;;;;;;5047657;28;20075;-57
2022/10/13 11:53:57;;;;;;;108.93;9.07;;;;;;;;;;5044215;28;20124;-57
2022/10/13 11:56:33;;;;;;;53.67;6.28;;;;;;;;;;5044027;28;20485;-57
2022/10/13 11:59:17;;;;;;;53.97;5.35;;;;;;;;;;5044403;28;20412;-57
2022/10/13 12:01:44;;;;;;;54.15;5.15;;;;;;;;;;5044701;28;20033;-57
2022/10/13 12:04:14;;;;;;;78.72;6.70;;;;;;;;;;5044167;28;20042;-56
2022/10/13 12:06:41;;;;;;;59.08;5.88;;;;;;;;;;5046854;28;20033;-57
2022/10/13 12:09:17;;;;;;;45.10;5.10;;;;;;;;;;5046120;28;20053;-57
2022/10/13 12:11:44;;;;;;;61.38;6.15;;;;;;;;;;5044604;28;20072;-57
2022/10/13 12:14:21;;;;;;;43.55;4.63;;;;;;;;;;5043703;28;20048;-57
2022/10/13 12:16:52;;;;;;;49.55;4.93;;;;;;;;;;5044675;28;20094;-57
2022/10/13 12:19:20;;;;;;;44.30;4.95;;;;;;;;;;5048224;28;20037;-57
2022/10/13 12:21:51;;;;;;;67.80;6.43;;;;;;;;;;5048215;28;20037;-57
2022/10/13 12:24:20;;;;;;;64.28;11.65;;;;;;;;;;5048844;28;20073;-57
2022/10/13 12:26:47;;;;;;;67.15;6.05;;;;;;;;;;5044117;28;20037;-57
2022/10/13 12:29:14;;;;;;;62.00;6.13;;;;;;;;;;5043928;28;20045;-57
2022/10/13 12:31:42;;;;;;;61.03;5.97;;;;;;;;;;5043631;28;20033;-57
2022/10/13 12:34:17;;;;;;;54.95;5.45;;;;;;;;;;5043642;28;20156;-57
2022/10/13 12:36:44;;;;;;;83.90;7.78;;;;;;;;;;5046427;28;20493;-57
2022/10/13 12:39:12;;;;;;;63.13;6.53;;;;;;;;;;5046490;28;20041;-57
2022/10/13 12:41:43;;;;;;;47.47;4.82;;;;;;;;;;5043715;28;20456;-57
2022/10/13 12:44:15;;;;;;;43.30;5.30;;;;;;;;;;5043998;28;20520;-57
2022/10/13 12:46:41;;;;;;;45.80;5.38;;;;;;;;;;5043916;28;20102;-57
2022/10/13 12:49:40;;;;;;;50.08;5.78;;;;;;;;;;5043651;28;20561;-57
2022/10/13 12:52:17;;;;;;;30.63;3.92;;;;;;;;;;5001580;28;20116;-57
2022/10/13 12:54:47;;;;;;;76.20;6.82;;;;;;;;;;5003326;28;20073;-58
2022/10/13 12:57:17;;;;;;;74.70;7.50;;;;;;;;;;5005040;28;20046;-57
2022/10/13 12:59:43;;;;;;;96.28;9.20;;;;;;;;;;5005636;28;20128;-57
2022/10/13 13:02:23;;;;;;;126.88;10.60;;;;;;;;;;5003525;28;20069;-57
2022/10/13 13:04:49;;;;;;;68.07;16.17;;;;;;;;;;5005831;28;20038;-56
2022/10/13 13:07:30;;;;;;;50.42;6.68;;;;;;;;;;5005373;28;20641;-57
2022/10/13 13:10:02;;;;;;;29.40;4.38;;;;;;;;;;5005476;28;20052;-57
2022/10/13 13:12:29;;;;;;;82.15;8.02;;;;;;;;;;5006847;28;20069;-56
2022/10/13 13:14:56;;;;;;;61.67;6.68;;;;;;;;;;5005559;28;20831;-57
2022/10/13 13:17:25;;;;;;;45.72;4.75;;;;;;;;;;5005338;28;20483;-56
2022/10/13 13:20:38;;;;;;;185.88;11.40;;;;;;;;;;5005827;28;20537;-56
2022/10/13 13:23:04;;;;;;;51.33;5.57;;;;;;;;;;5002330;28;20046;-56
2022/10/13 13:25:31;;;;;;;34.70;4.60;;;;;;;;;;5005433;28;20046;-57
2022/10/13 13:27:57;;;;;;;67.07;16.40;;;;;;;;;;5029580;28;20054;-58
2022/10/13 13:30:25;;;;;;;85.53;7.47;;;;;;;;;;5052072;28;20049;-56
2022/10/13 13:32:51;;;;;;;85.65;8.80;;;;;;;;;;5047303;28;20120;-56
2022/10/13 13:35:18;;;;;;;64.60;6.88;;;;;;;;;;5050770;28;20049;-56
2022/10/13 13:37:49;;;;;;;70.05;6.85;;;;;;;;;;5051439;28;20044;-56
2022/10/13 13:40:17;;;;;;;58.50;6.55;;;;;;;;;;5046745;28;20083;-56
2022/10/13 13:42:44;;;;;;;59.33;6.18;;;;;;;;;;5048241;28;20041;-56
2022/10/13 13:45:11;;;;;;;41.50;5.03;;;;;;;;;;5048792;28;20044;-56
2022/10/13 13:47:38;;;;;;;37.58;5.15;;;;;;;;;;5046615;28;20041;-56
2022/10/13 13:50:12;;;;;;;34.17;5.43;;;;;;;;;;5046782;28;20414;-56
2022/10/13 13:52:40;;;;;;;72.97;7.18;;;;;;;;;;5046700;28;21125;-56
2022/10/13 13:55:07;;;;;;;36.90;5.32;;;;;;;;;;5046760;28;20036;-54
2022/10/13 13:57:34;;;;;;;68.88;7.32;;;;;;;;;;5050868;28;20128;-56
2022/10/13 14:00:00;;;;;;;54.13;6.55;;;;;;;;;;5047716;28;20065;-56
2022/10/13 14:02:36;;;;;;;34.80;5.13;;;;;;;;;;5047012;28;20056;-56
2022/10/13 14:05:03;;;;;;;107.88;8.82;;;;;;;;;;5046390;28;20065;-56
2022/10/13 14:07:30;;;;;;;54.22;5.63;;;;;;;;;;5047301;28;20040;-56
2022/10/13 14:09:57;;;;;;;36.85;5.40;;;;;;;;;;5046886;28;20041;-56
2022/10/13 14:12:28;;;;;;;99.10;9.10;;;;;;;;;;5047397;28;20724;-55
2022/10/13 14:14:55;;;;;;;86.93;8.63;;;;;;;;;;5046143;28;20052;-56
2022/10/13 14:17:22;;;;;;;44.15;5.20;;;;;;;;;;5050208;28;20043;-56
2022/10/13 14:19:48;;;;;;;81.50;8.38;;;;;;;;;;5050230;28;20612;-57
2022/10/13 14:22:15;;;;;;;47.53;5.50;;;;;;;;;;5047442;28;20037;-56
2022/10/13 14:24:41;;;;;;;89.80;8.25;;;;;;;;;;5048771;28;20049;-57
2022/10/13 14:27:09;;;;;;;74.90;7.70;;;;;;;;;;5048368;28;20045;-57
2022/10/13 14:29:35;;;;;;;51.70;6.57;;;;;;;;;;5046055;28;20056;-56